createdAt,value
2022-08-25T00:00:24.814Z,95382
2022-08-25T00:03:50.061Z,95374
2022-08-25T00:07:18.564Z,95376
2022-08-25T00:10:40.565Z,95371
2022-08-25T00:14:05.782Z,95368
2022-08-25T00:17:31.031Z,95367
2022-08-25T00:20:56.285Z,95367
2022-08-25T00:24:21.544Z,95373
2022-08-25T00:27:46.761Z,95365
2022-08-25T00:31:12.048Z,95368
2022-08-25T00:34:37.250Z,95371
2022-08-25T00:38:02.581Z,95364
2022-08-25T00:41:27.740Z,95363
2022-08-25T00:44:53.058Z,95367
2022-08-25T00:48:18.246Z,95374
2022-08-25T00:51:43.492Z,95370
2022-08-25T00:55:08.713Z,95368
2022-08-25T00:58:33.922Z,95363
2022-08-25T01:01:59.256Z,95360
2022-08-25T01:05:24.413Z,95356
2022-08-25T01:08:49.645Z,95350
2022-08-25T01:12:14.876Z,95348
2022-08-25T01:15:40.138Z,95341
2022-08-25T01:19:05.341Z,95347
2022-08-25T01:22:30.575Z,95343
2022-08-25T01:25:55.819Z,95349
2022-08-25T01:29:21.055Z,95353
2022-08-25T01:32:46.307Z,95345
2022-08-25T01:36:11.531Z,95346
2022-08-25T01:39:36.786Z,95345
2022-08-25T01:43:02.016Z,95343
2022-08-25T01:46:27.292Z,95340
2022-08-25T01:49:52.475Z,95343
2022-08-25T01:53:17.706Z,95339
2022-08-25T01:56:42.939Z,95339
2022-08-25T02:00:08.179Z,95334
2022-08-25T02:03:33.399Z,95329
2022-08-25T02:06:58.633Z,95329
2022-08-25T02:10:23.875Z,95324
2022-08-25T02:13:49.107Z,95322
2022-08-25T02:17:14.326Z,95322
2022-08-25T02:20:39.585Z,95324
2022-08-25T02:24:04.844Z,95325
2022-08-25T02:27:30.084Z,95327
2022-08-25T02:30:58.794Z,95323
2022-08-25T02:34:20.524Z,95317
2022-08-25T02:37:45.785Z,95314
2022-08-25T02:41:11.023Z,95314
2022-08-25T02:44:36.284Z,95319
2022-08-25T02:48:01.574Z,95316
2022-08-25T02:51:26.744Z,95320
2022-08-25T02:54:51.967Z,95317
2022-08-25T02:58:17.189Z,95308
2022-08-25T03:01:42.476Z,95311
2022-08-25T03:05:07.668Z,95309
2022-08-25T03:08:32.876Z,95303
2022-08-25T03:11:58.109Z,95307
2022-08-25T03:15:23.342Z,95311
2022-08-25T03:18:48.587Z,95307
2022-08-25T03:22:13.827Z,95306
2022-08-25T03:25:39.052Z,95305
2022-08-25T03:29:04.299Z,95301
2022-08-25T03:32:29.538Z,95302
2022-08-25T03:35:54.781Z,95301
2022-08-25T03:39:20.008Z,95298
2022-08-25T03:42:46.239Z,95294
2022-08-25T03:46:11.514Z,95296
2022-08-25T03:49:36.713Z,95295
2022-08-25T03:53:01.985Z,95297
2022-08-25T03:56:27.212Z,95299
2022-08-25T03:59:52.470Z,95302
2022-08-25T04:03:17.708Z,95301
2022-08-25T04:06:42.971Z,95297
2022-08-25T04:10:08.224Z,95302
2022-08-25T04:13:33.466Z,95304
2022-08-25T04:16:58.718Z,95306
2022-08-25T04:20:23.927Z,95314
2022-08-25T04:23:49.162Z,95310
2022-08-25T04:27:14.398Z,95310
2022-08-25T04:30:39.617Z,95304
2022-08-25T04:34:04.866Z,95308
2022-08-25T04:37:30.129Z,95308
2022-08-25T04:40:55.361Z,95305
2022-08-25T04:44:20.626Z,95303
2022-08-25T04:47:45.866Z,95300
2022-08-25T04:51:11.138Z,95290
2022-08-25T04:54:37.034Z,95289
2022-08-25T04:58:01.564Z,95286
2022-08-25T05:01:26.864Z,95283
2022-08-25T05:04:52.106Z,95285
2022-08-25T05:08:17.309Z,95291
2022-08-25T05:11:42.535Z,95295
2022-08-25T05:15:07.784Z,95292
2022-08-25T05:18:33.035Z,95290
2022-08-25T05:21:58.389Z,95288
2022-08-25T05:25:23.480Z,95288
2022-08-25T05:28:48.752Z,95294
2022-08-25T05:32:14.073Z,95289
2022-08-25T05:35:39.248Z,95294
2022-08-25T05:39:04.502Z,95299
2022-08-25T05:42:29.742Z,95296
2022-08-25T05:45:55.026Z,95300
2022-08-25T05:49:20.188Z,95289
2022-08-25T05:52:45.439Z,95293
2022-08-25T05:56:10.663Z,95291
2022-08-25T05:59:35.888Z,95287
2022-08-25T06:03:01.125Z,95284
2022-08-25T06:06:26.367Z,95282
2022-08-25T06:09:51.590Z,95276
2022-08-25T06:13:16.819Z,95279
2022-08-25T06:16:42.097Z,95274
2022-08-25T06:20:07.280Z,95272
2022-08-25T06:23:32.526Z,95269
2022-08-25T06:26:57.764Z,95271
2022-08-25T06:30:24.437Z,95267
2022-08-25T06:33:48.228Z,95266
2022-08-25T06:37:13.460Z,95264
2022-08-25T06:40:38.692Z,95267
2022-08-25T06:44:05.121Z,95273
2022-08-25T06:47:29.159Z,95270
2022-08-25T06:50:54.415Z,95280
2022-08-25T06:54:19.649Z,95276
2022-08-25T06:57:44.894Z,95270
2022-08-25T07:01:13.556Z,95272
2022-08-25T07:04:35.391Z,95265
2022-08-25T07:08:00.630Z,95270
2022-08-25T07:11:25.913Z,95274
2022-08-25T07:15:03.956Z,95274
2022-08-25T07:18:16.405Z,95278
2022-08-25T07:21:41.638Z,95272
2022-08-25T07:25:06.894Z,95276
2022-08-25T07:28:32.145Z,95276
2022-08-25T07:31:57.447Z,95266
2022-08-25T07:35:24.064Z,95266
2022-08-25T07:38:47.869Z,95268
2022-08-25T07:42:13.127Z,95266
2022-08-25T07:45:41.157Z,95268
2022-08-25T07:49:03.626Z,95270
2022-08-25T07:52:28.870Z,95272
2022-08-25T07:55:54.129Z,95267
2022-08-25T07:59:19.341Z,95259
2022-08-25T08:02:44.894Z,95258
2022-08-25T08:06:10.115Z,95258
2022-08-25T08:09:35.398Z,95255
2022-08-25T08:13:00.720Z,95256
2022-08-25T08:16:25.920Z,95253
2022-08-25T08:19:51.104Z,95245
2022-08-25T08:23:16.346Z,95245
2022-08-25T08:26:57.525Z,95244
2022-08-25T08:30:06.826Z,95243
2022-08-25T08:33:32.079Z,95243
2022-08-25T08:36:57.295Z,95242
2022-08-25T08:40:22.559Z,95244
2022-08-25T08:43:47.774Z,95235
2022-08-25T08:47:13.009Z,95238
2022-08-25T08:50:38.250Z,95241
2022-08-25T08:54:03.471Z,95242
2022-08-25T08:57:28.698Z,95242
2022-08-25T09:00:53.944Z,95246
2022-08-25T09:04:20.092Z,95239
2022-08-25T09:07:44.398Z,95237
2022-08-25T09:11:10.081Z,95232
2022-08-25T09:14:34.912Z,95235
2022-08-25T09:18:00.130Z,95236
2022-08-25T09:21:25.367Z,95233
2022-08-25T09:24:50.595Z,95224
2022-08-25T09:28:15.824Z,95232
2022-08-25T09:31:41.116Z,95227
2022-08-25T09:35:06.279Z,95220
2022-08-25T09:38:31.493Z,95214
2022-08-25T09:41:56.720Z,95213
2022-08-25T09:45:21.937Z,95205
2022-08-25T09:48:48.543Z,95204
2022-08-25T09:52:12.727Z,95205
2022-08-25T09:55:37.597Z,95200
2022-08-25T09:59:03.244Z,95203
2022-08-25T10:02:28.004Z,95200
2022-08-25T10:05:56.233Z,95207
2022-08-25T10:09:18.454Z,95196
2022-08-25T10:12:43.650Z,95191
2022-08-25T10:16:20.018Z,95184
2022-08-25T10:19:34.063Z,95185
2022-08-25T10:22:59.283Z,95184
2022-08-25T10:26:24.490Z,95181
2022-08-25T10:29:49.714Z,95180
2022-08-25T10:33:14.905Z,95174
2022-08-25T10:36:40.142Z,95177
2022-08-25T10:40:05.484Z,95176
2022-08-25T10:43:30.660Z,95169
2022-08-25T10:46:55.911Z,95162
2022-08-25T10:50:21.136Z,95156
2022-08-25T10:53:46.364Z,95151
2022-08-25T10:57:11.599Z,95148
2022-08-25T11:00:36.836Z,95143
2022-08-25T11:04:02.122Z,95139
2022-08-25T11:07:27.300Z,95137
2022-08-25T11:10:52.529Z,95130
2022-08-25T11:14:17.757Z,95124
2022-08-25T11:17:43.023Z,95121
2022-08-25T11:21:08.656Z,95117
2022-08-25T11:24:33.517Z,95117
2022-08-25T11:27:58.764Z,95114
2022-08-25T11:31:23.982Z,95108
2022-08-25T11:34:49.212Z,95114
2022-08-25T11:38:14.459Z,95108
2022-08-25T11:41:39.691Z,95112
2022-08-25T11:45:04.922Z,95110
2022-08-25T11:48:30.163Z,95114
2022-08-25T11:51:55.403Z,95111
2022-08-25T11:55:22.740Z,95109
2022-08-25T11:58:46.134Z,95103
2022-08-25T12:02:11.442Z,95105
2022-08-25T12:05:36.723Z,95101
2022-08-25T12:09:01.906Z,95098
2022-08-25T12:12:27.138Z,95086
2022-08-25T12:15:52.384Z,95086
2022-08-25T12:19:17.626Z,95084
2022-08-25T12:22:42.883Z,95084
2022-08-25T12:26:08.120Z,95082
2022-08-25T12:29:33.400Z,95081
2022-08-25T12:32:58.675Z,95079
2022-08-25T12:36:23.949Z,95075
2022-08-25T12:39:49.227Z,95071
2022-08-25T12:43:14.455Z,95070
2022-08-25T12:46:39.719Z,95066
2022-08-25T12:50:04.956Z,95078
2022-08-25T12:53:30.205Z,95076
2022-08-25T12:56:55.476Z,95081
2022-08-25T13:00:20.768Z,95079
2022-08-25T13:03:45.992Z,95078
2022-08-25T13:07:11.230Z,95083
2022-08-25T13:10:36.486Z,95081
2022-08-25T13:14:01.741Z,95080
2022-08-25T13:17:26.982Z,95079
2022-08-25T13:20:52.235Z,95074
2022-08-25T13:24:17.496Z,95070
2022-08-25T13:27:42.769Z,95072
2022-08-25T13:31:08.053Z,95064
2022-08-25T13:34:34.603Z,95055
2022-08-25T13:37:58.552Z,95047
2022-08-25T13:41:27.321Z,95039
2022-08-25T13:44:51.618Z,95048
2022-08-25T13:48:21.297Z,95043
2022-08-25T13:51:39.648Z,95037
2022-08-25T13:55:04.980Z,95031
2022-08-25T13:58:32.584Z,95025
2022-08-25T14:01:55.747Z,95018
2022-08-25T14:05:20.820Z,95022
2022-08-25T14:08:46.036Z,95017
2022-08-25T14:12:11.322Z,95016
2022-08-25T14:15:36.595Z,95012
2022-08-25T14:19:01.859Z,95009
2022-08-25T14:22:28.051Z,95011
2022-08-25T14:25:53.315Z,95013
2022-08-25T14:29:18.566Z,95016
2022-08-25T15:06:16.173Z,94976
2022-08-25T15:09:41.424Z,94967
2022-08-25T15:13:06.659Z,94963
2022-08-25T15:16:32.259Z,94960
2022-08-25T15:19:57.143Z,94959
2022-08-25T15:23:22.550Z,94966
2022-08-25T15:30:13.198Z,94963
2022-08-25T15:33:38.326Z,94964
2022-08-25T15:37:03.535Z,94964
2022-08-25T15:40:28.832Z,94973
2022-08-25T15:43:54.011Z,94971
2022-08-25T15:47:19.309Z,94960
2022-08-25T15:50:44.668Z,94957
2022-08-25T15:54:10.095Z,94953
2022-08-25T15:57:35.341Z,94956
2022-08-25T16:01:00.660Z,94954
2022-08-25T16:04:26.024Z,94948
2022-08-25T16:07:51.608Z,94951
2022-08-25T16:11:16.698Z,94951
2022-08-25T16:14:41.949Z,94949
2022-08-25T16:18:07.207Z,94948
2022-08-25T16:21:32.582Z,94943
2022-08-25T16:24:57.812Z,94949
2022-08-25T16:28:24.371Z,94940
2022-08-25T16:31:53.111Z,94942
2022-08-25T16:35:13.801Z,94938
2022-08-25T16:38:39.178Z,94938
2022-08-25T16:42:04.537Z,94932
2022-08-25T16:45:29.864Z,94934
2022-08-25T16:48:55.138Z,94934
2022-08-25T16:52:20.389Z,94932
2022-08-25T16:55:45.653Z,94929
2022-08-25T16:59:10.908Z,94933
2022-08-25T17:02:36.139Z,94933
2022-08-25T17:06:01.373Z,94932
2022-08-25T17:09:26.614Z,94935
2022-08-25T17:12:51.869Z,94925
2022-08-25T17:16:17.150Z,94930
2022-08-25T17:19:45.809Z,94929
2022-08-25T17:23:12.198Z,94930
2022-08-25T17:26:32.781Z,94930
2022-08-25T17:29:58.011Z,94936
2022-08-25T17:33:23.990Z,94928
2022-08-25T17:36:48.484Z,94931
2022-08-25T17:40:13.776Z,94926
2022-08-25T17:43:38.956Z,94925
2022-08-25T17:47:07.716Z,94928
2022-08-25T17:50:33.720Z,94920
2022-08-25T17:53:59.025Z,94927
2022-08-25T17:57:24.321Z,94929
2022-08-25T18:00:49.560Z,94931
2022-08-25T18:04:17.718Z,94936
2022-08-25T18:07:40.306Z,94941
2022-08-25T18:11:08.917Z,94938
2022-08-25T18:14:34.138Z,94942
2022-08-25T18:17:59.427Z,94943
2022-08-25T18:21:24.738Z,94948
2022-08-25T18:24:50.055Z,94946
2022-08-25T18:28:15.297Z,94949
2022-08-25T18:31:40.607Z,94948
2022-08-25T18:35:05.793Z,94951
2022-08-25T18:38:31.112Z,94955
2022-08-25T18:41:57.291Z,94959
2022-08-25T18:45:22.579Z,94961
2022-08-25T18:48:47.885Z,94958
2022-08-25T18:52:13.162Z,94960
2022-08-25T18:55:38.455Z,94959
2022-08-25T18:59:03.726Z,94959
2022-08-25T19:02:29.135Z,94954
2022-08-25T19:05:55.022Z,94961
2022-08-25T19:09:22.460Z,94954
2022-08-25T19:12:49.029Z,94951
2022-08-25T19:16:17.651Z,94948
2022-08-25T19:20:30.594Z,94946
2022-08-25T19:24:21.272Z,94950
2022-08-25T19:29:13.401Z,94951
2022-08-25T19:33:51.600Z,94947
2022-08-25T19:37:44.454Z,94940
2022-08-25T19:42:03.170Z,94944
2022-08-25T19:54:49.713Z,94942
2022-08-25T19:58:15.700Z,94939
2022-08-25T20:01:40.966Z,94943
2022-08-25T20:05:06.144Z,94940
2022-08-25T20:08:31.354Z,94944
2022-08-25T20:11:56.579Z,94940
2022-08-25T20:15:21.799Z,94941
2022-08-25T20:18:47.015Z,94937
2022-08-25T20:22:17.819Z,94939
2022-08-25T20:25:37.475Z,94940
2022-08-25T20:29:02.714Z,94943
2022-08-25T20:32:28.991Z,94942
2022-08-25T20:35:53.363Z,94950
2022-08-25T20:39:18.391Z,94950
2022-08-25T20:42:43.681Z,94951
2022-08-25T20:46:08.878Z,94951
2022-08-25T20:49:34.428Z,94961
2022-08-25T20:52:59.413Z,94957
2022-08-25T20:56:24.478Z,94959
2022-08-25T20:59:49.719Z,94957
2022-08-25T21:03:14.924Z,94954
2022-08-25T21:06:40.165Z,94957
2022-08-25T21:10:05.420Z,94958
2022-08-25T21:13:32.125Z,94955
2022-08-25T21:16:55.907Z,94956
2022-08-25T21:20:21.128Z,94964
2022-08-25T21:23:46.374Z,94962
2022-08-25T21:27:11.603Z,94964
2022-08-25T21:30:36.894Z,94957
2022-08-25T21:34:02.058Z,94961
2022-08-25T21:37:27.282Z,94958
2022-08-25T21:40:52.518Z,94960
2022-08-25T21:44:17.751Z,94960
2022-08-25T21:47:42.971Z,94962
2022-08-25T21:51:09.040Z,94961
2022-08-25T21:54:33.417Z,94962
2022-08-25T21:57:58.643Z,94965
2022-08-25T22:01:23.915Z,94962
2022-08-25T22:04:49.133Z,94964
2022-08-25T22:08:14.371Z,94968
2022-08-25T22:11:39.611Z,94968
2022-08-25T22:15:04.862Z,94970
2022-08-25T22:18:30.071Z,94970
2022-08-25T22:21:55.294Z,94969
2022-08-25T22:25:20.538Z,94969
2022-08-25T22:28:45.981Z,94965
2022-08-25T22:32:11.018Z,94956
2022-08-25T22:35:36.251Z,94957
2022-08-25T22:39:01.495Z,94951
2022-08-25T22:42:26.728Z,94952
2022-08-25T22:45:52.015Z,94942
2022-08-25T22:49:17.179Z,94940
2022-08-25T22:52:42.476Z,94936
2022-08-25T22:56:07.642Z,94932
2022-08-25T22:59:32.880Z,94935
2022-08-25T23:02:58.138Z,94932
2022-08-25T23:06:24.542Z,94935
2022-08-25T23:09:48.601Z,94933
2022-08-25T23:13:15.025Z,94935
2022-08-25T23:16:39.106Z,94930
2022-08-25T23:20:04.324Z,94929
2022-08-25T23:23:29.570Z,94933
2022-08-25T23:26:54.785Z,94924
2022-08-25T23:30:20.010Z,94920
2022-08-25T23:33:45.282Z,94915
2022-08-25T23:37:10.467Z,94912
2022-08-25T23:40:35.709Z,94909
2022-08-25T23:44:00.887Z,94905
2022-08-25T23:47:26.111Z,94909
2022-08-25T23:50:54.057Z,94904
2022-08-25T23:54:16.494Z,94907
2022-08-25T23:57:41.673Z,94909
